createdAt,value
2022-09-11T00:01:41.778Z,14.96
2022-09-11T00:04:09.860Z,14.95
2022-09-11T00:06:36.382Z,14.92
2022-09-11T00:09:06.146Z,14.87
2022-09-11T00:11:42.590Z,14.83
2022-09-11T00:14:11.813Z,14.81
2022-09-11T00:16:41.331Z,14.76
2022-09-11T00:19:12.046Z,14.73
2022-09-11T00:21:39.308Z,14.71
2022-09-11T00:24:05.914Z,14.58
2022-09-11T00:26:32.470Z,14.65
2022-09-11T00:29:00.674Z,14.68
2022-09-11T00:31:30.160Z,14.67
2022-09-11T00:33:56.888Z,14.66
2022-09-11T00:36:35.692Z,14.71
2022-09-11T00:39:02.199Z,14.74
2022-09-11T00:41:32.052Z,14.76
2022-09-11T00:44:02.909Z,14.80
2022-09-11T00:46:35.460Z,14.78
2022-09-11T00:49:11.525Z,14.81
2022-09-11T00:51:38.530Z,14.83
2022-09-11T00:54:05.171Z,14.86
2022-09-11T00:56:37.208Z,14.84
2022-09-11T00:59:04.979Z,14.82
2022-09-11T01:01:31.609Z,14.91
2022-09-11T01:03:58.045Z,14.95
2022-09-11T01:06:25.380Z,14.99
2022-09-11T01:08:52.551Z,15.00
2022-09-11T01:11:43.027Z,14.92
2022-09-11T01:14:31.255Z,15.05
2022-09-11T01:17:26.726Z,15.10
2022-09-11T01:20:11.479Z,15.16
2022-09-11T01:23:19.629Z,15.17
2022-09-11T01:25:59.923Z,15.18
2022-09-11T01:28:35.442Z,15.19
2022-09-11T01:31:08.661Z,15.24
2022-09-11T01:33:45.921Z,15.27
2022-09-11T01:36:22.424Z,15.35
2022-09-11T01:38:58.915Z,15.38
2022-09-11T01:41:45.631Z,15.46
2022-09-11T01:44:18.586Z,15.50
2022-09-11T01:46:49.835Z,15.49
2022-09-11T01:49:40.457Z,15.51
2022-09-11T01:52:12.888Z,15.56
2022-09-11T01:54:45.924Z,15.54
2022-09-11T01:57:20.804Z,15.62
2022-09-11T01:59:49.740Z,15.65
2022-09-11T02:02:22.432Z,15.65
2022-09-11T02:04:55.509Z,15.61
2022-09-11T02:07:45.109Z,15.67
2022-09-11T02:10:18.058Z,15.67
2022-09-11T02:12:53.667Z,15.63
2022-09-11T02:15:23.003Z,15.67
2022-09-11T02:18:03.382Z,15.68
2022-09-11T02:20:31.291Z,15.71
2022-09-11T02:22:58.871Z,15.68
2022-09-11T02:25:25.301Z,15.73
2022-09-11T02:27:51.945Z,15.75
2022-09-11T02:30:18.372Z,15.72
2022-09-11T02:32:44.804Z,15.71
2022-09-11T02:35:12.042Z,15.69
2022-09-11T02:37:56.878Z,15.71
2022-09-11T02:40:38.921Z,15.71
2022-09-11T02:43:23.264Z,15.77
2022-09-11T02:46:08.310Z,15.77
2022-09-11T02:48:53.659Z,15.75
2022-09-11T02:51:37.682Z,15.72
2022-09-11T02:54:15.605Z,15.74
2022-09-11T02:56:48.058Z,15.76
2022-09-11T02:59:25.757Z,15.73
2022-09-11T03:01:55.184Z,15.63
2022-09-11T03:04:24.572Z,15.63
2022-09-11T03:06:52.800Z,15.65
2022-09-11T03:09:20.294Z,15.62
2022-09-11T03:11:46.710Z,15.67
2022-09-11T03:14:14.240Z,15.68
2022-09-11T03:16:41.545Z,15.69
2022-09-11T03:19:08.408Z,15.60
2022-09-11T03:21:35.087Z,15.61
2022-09-11T03:24:01.947Z,15.61
2022-09-11T03:26:29.437Z,15.58
2022-09-11T03:28:56.033Z,15.59
2022-09-11T03:31:22.475Z,15.57
2022-09-11T03:33:48.922Z,15.58
2022-09-11T03:36:15.414Z,15.58
2022-09-11T03:38:41.893Z,15.58
2022-09-11T03:41:09.504Z,15.57
2022-09-11T03:43:36.051Z,15.55
2022-09-11T03:46:03.110Z,15.57
2022-09-11T03:48:29.822Z,15.53
2022-09-11T03:50:56.528Z,15.55
2022-09-11T03:53:22.890Z,15.52
2022-09-11T03:55:52.148Z,15.52
2022-09-11T03:58:19.333Z,15.48
2022-09-11T04:00:46.574Z,15.51
2022-09-11T04:03:15.449Z,15.46
2022-09-11T04:05:43.903Z,15.44
2022-09-11T04:08:13.104Z,15.50
2022-09-11T04:10:39.715Z,15.50
2022-09-11T04:13:06.044Z,15.57
2022-09-11T04:15:32.820Z,15.57
2022-09-11T04:18:02.179Z,15.52
2022-09-11T04:20:31.758Z,15.54
2022-09-11T04:22:58.370Z,15.55
2022-09-11T04:25:24.764Z,15.53
2022-09-11T04:27:51.246Z,15.54
2022-09-11T04:30:17.870Z,15.54
2022-09-11T04:32:46.167Z,15.52
2022-09-11T04:35:12.563Z,15.53
2022-09-11T04:37:38.899Z,15.44
2022-09-11T04:40:05.996Z,15.46
2022-09-11T04:42:32.382Z,15.39
2022-09-11T04:44:58.705Z,15.40
2022-09-11T04:47:25.082Z,15.42
2022-09-11T04:49:52.653Z,15.43
2022-09-11T04:52:20.425Z,15.44
2022-09-11T04:54:46.779Z,15.40
2022-09-11T04:57:14.294Z,15.42
2022-09-11T04:59:40.662Z,15.41
2022-09-11T05:02:07.136Z,15.45
2022-09-11T05:04:33.547Z,15.45
2022-09-11T05:07:00.274Z,15.46
2022-09-11T05:09:27.720Z,15.46
2022-09-11T05:11:54.482Z,15.45
2022-09-11T05:14:20.943Z,15.47
2022-09-11T05:16:47.483Z,15.47
2022-09-11T05:19:14.042Z,15.38
2022-09-11T05:21:41.444Z,15.37
2022-09-11T05:24:08.026Z,15.37
2022-09-11T05:26:37.011Z,15.42
2022-09-11T05:29:09.270Z,15.41
2022-09-11T05:31:37.148Z,15.42
2022-09-11T05:34:03.968Z,15.38
2022-09-11T05:36:34.145Z,15.40
2022-09-11T05:39:00.739Z,15.38
2022-09-11T05:41:27.162Z,15.38
2022-09-11T05:43:54.593Z,15.28
2022-09-11T05:46:21.868Z,15.30
2022-09-11T05:48:48.218Z,15.33
2022-09-11T05:51:21.337Z,15.39
2022-09-11T05:53:58.058Z,15.32
2022-09-11T05:56:25.620Z,15.39
2022-09-11T05:58:52.561Z,15.37
2022-09-11T06:01:22.061Z,15.44
2022-09-11T06:03:49.563Z,15.48
2022-09-11T06:06:17.812Z,15.46
2022-09-11T06:08:44.595Z,15.48
2022-09-11T06:11:13.914Z,15.49
2022-09-11T06:13:45.021Z,15.47
2022-09-11T06:16:18.587Z,15.50
2022-09-11T06:18:48.928Z,15.46
2022-09-11T06:21:19.128Z,15.51
2022-09-11T06:23:49.953Z,15.50
2022-09-11T06:26:19.870Z,15.50
2022-09-11T06:28:47.585Z,15.50
2022-09-11T06:31:19.645Z,15.53
2022-09-11T06:33:47.162Z,15.49
2022-09-11T06:36:18.944Z,15.43
2022-09-11T06:38:46.276Z,15.40
2022-09-11T06:41:16.874Z,15.43
2022-09-11T06:43:44.338Z,15.43
2022-09-11T06:46:16.570Z,15.44
2022-09-11T06:48:44.223Z,15.48
2022-09-11T06:51:12.610Z,15.47
2022-09-11T06:53:40.950Z,15.49
2022-09-11T06:56:09.527Z,15.54
2022-09-11T06:58:35.893Z,15.54
2022-09-11T07:01:06.803Z,15.54
2022-09-11T07:03:33.735Z,15.47
2022-09-11T07:06:00.489Z,15.48
2022-09-11T07:08:27.669Z,15.50
2022-09-11T07:10:54.334Z,15.48
2022-09-11T07:13:20.966Z,15.42
2022-09-11T07:15:49.995Z,15.40
2022-09-11T07:18:16.616Z,15.45
2022-09-11T07:20:43.039Z,15.51
2022-09-11T07:23:09.410Z,15.52
2022-09-11T07:25:38.395Z,15.48
2022-09-11T07:28:05.032Z,15.46
2022-09-11T07:30:32.502Z,15.54
2022-09-11T07:32:59.435Z,15.44
2022-09-11T07:35:25.835Z,15.50
2022-09-11T07:37:52.787Z,15.48
2022-09-11T07:40:19.345Z,15.50
2022-09-11T07:42:45.680Z,15.55
2022-09-11T07:45:12.115Z,15.49
2022-09-11T07:47:38.709Z,15.44
2022-09-11T07:50:05.768Z,15.49
2022-09-11T07:52:32.555Z,15.55
2022-09-11T07:55:01.665Z,15.63
2022-09-11T07:57:29.985Z,15.67
2022-09-11T07:59:56.626Z,15.62
2022-09-11T08:02:23.159Z,15.61
2022-09-11T08:04:49.914Z,15.71
2022-09-11T08:07:17.043Z,15.70
2022-09-11T08:09:43.387Z,15.71
2022-09-11T08:12:10.778Z,15.65
2022-09-11T08:14:37.164Z,15.76
2022-09-11T08:17:03.593Z,15.80
2022-09-11T08:19:29.989Z,15.79
2022-09-11T08:21:56.410Z,15.84
2022-09-11T08:24:24.285Z,15.76
2022-09-11T08:26:50.756Z,15.75
2022-09-11T08:29:18.199Z,15.69
2022-09-11T08:31:45.301Z,15.65
2022-09-11T08:34:11.803Z,15.63
2022-09-11T08:36:38.338Z,15.68
2022-09-11T08:39:05.305Z,15.66
2022-09-11T08:41:56.453Z,15.70
2022-09-11T08:44:51.181Z,15.80
2022-09-11T08:47:24.252Z,15.76
2022-09-11T08:50:01.435Z,15.82
2022-09-11T08:52:28.536Z,15.87
2022-09-11T08:54:59.308Z,16.01
2022-09-11T08:57:35.047Z,16.01
2022-09-11T09:00:08.721Z,16.09
2022-09-11T09:02:35.028Z,16.01
2022-09-11T09:05:01.370Z,16.04
2022-09-11T09:07:44.894Z,15.93
2022-09-11T09:10:24.719Z,15.96
2022-09-11T09:13:15.675Z,16.07
2022-09-11T09:16:02.484Z,16.18
2022-09-11T09:18:45.633Z,16.34
2022-09-11T09:21:20.265Z,16.41
2022-09-11T09:23:53.813Z,16.60
2022-09-11T09:26:20.892Z,16.61
2022-09-11T09:28:52.705Z,16.70
2022-09-11T09:31:27.093Z,16.83
2022-09-11T09:34:08.583Z,16.94
2022-09-11T09:36:43.733Z,17.15
2022-09-11T09:39:13.882Z,17.22
2022-09-11T09:42:20.447Z,17.16
2022-09-11T09:45:04.929Z,17.37
2022-09-11T09:47:33.195Z,17.56
2022-09-11T09:49:59.953Z,17.47
2022-09-11T09:52:33.655Z,17.18
2022-09-11T09:55:14.073Z,17.29
2022-09-11T09:57:40.740Z,17.32
2022-09-11T10:00:10.621Z,17.32
2022-09-11T10:02:40.549Z,17.44
2022-09-11T10:05:19.716Z,17.56
2022-09-11T10:07:52.242Z,17.69
2022-09-11T10:10:36.329Z,17.70
2022-09-11T10:13:18.983Z,17.78
2022-09-11T10:15:48.675Z,17.61
2022-09-11T10:18:35.810Z,17.70
2022-09-11T10:21:11.379Z,17.51
2022-09-11T10:23:54.750Z,17.74
2022-09-11T10:26:38.529Z,17.68
2022-09-11T10:29:27.250Z,17.75
2022-09-11T10:31:59.294Z,17.80
2022-09-11T10:34:28.076Z,17.75
2022-09-11T10:37:00.425Z,17.86
2022-09-11T10:39:29.342Z,18.01
2022-09-11T10:41:59.586Z,18.02
2022-09-11T10:44:28.275Z,18.02
2022-09-11T10:47:13.682Z,18.06
2022-09-11T10:49:40.410Z,18.01
2022-09-11T10:52:06.735Z,17.86
2022-09-11T10:54:58.470Z,17.90
2022-09-11T10:57:33.828Z,17.93
2022-09-11T11:00:16.104Z,18.01
2022-09-11T11:02:48.864Z,18.18
2022-09-11T11:05:21.247Z,18.10
2022-09-11T11:07:54.880Z,18.24
2022-09-11T11:10:21.154Z,18.63
2022-09-11T11:13:07.973Z,18.76
2022-09-11T11:15:44.403Z,18.84
2022-09-11T11:18:18.904Z,18.77
2022-09-11T11:21:00.360Z,18.81
2022-09-11T11:23:53.092Z,18.70
2022-09-11T11:26:39.051Z,18.76
2022-09-11T11:29:24.366Z,18.89
2022-09-11T11:32:12.583Z,20.44
2022-09-11T11:34:55.137Z,20.99
2022-09-11T11:37:32.305Z,20.28
2022-09-11T11:40:37.604Z,20.00
2022-09-11T11:43:07.750Z,20.12
2022-09-11T11:45:38.666Z,20.26
2022-09-11T11:48:13.874Z,20.96
2022-09-11T11:50:45.749Z,20.98
2022-09-11T11:53:29.336Z,20.62
2022-09-11T11:56:01.677Z,21.53
2022-09-11T11:59:03.986Z,22.55
2022-09-11T12:01:48.599Z,23.11
2022-09-11T12:04:43.024Z,23.80
2022-09-11T12:07:33.113Z,23.50
2022-09-11T12:10:02.089Z,23.75
2022-09-11T12:12:33.784Z,23.91
2022-09-11T12:15:09.763Z,23.53
2022-09-11T12:17:39.747Z,24.12
2022-09-11T12:20:12.232Z,22.95
2022-09-11T12:22:38.909Z,23.94
2022-09-11T12:25:23.732Z,24.24
2022-09-11T12:28:08.451Z,24.89
2022-09-11T12:30:53.595Z,24.02
2022-09-11T12:33:50.796Z,24.66
2022-09-11T12:36:24.412Z,24.61
2022-09-11T12:38:56.667Z,24.26
2022-09-11T12:41:30.115Z,24.78
2022-09-11T12:43:56.644Z,24.09
2022-09-11T12:46:26.055Z,25.44
2022-09-11T12:49:17.982Z,24.82
2022-09-11T12:51:43.150Z,24.20
2022-09-11T12:54:26.898Z,23.79
2022-09-11T12:57:02.118Z,24.76
2022-09-11T12:59:35.052Z,24.87
2022-09-11T13:02:04.268Z,25.42
2022-09-11T13:04:32.270Z,25.17
2022-09-11T13:07:07.115Z,25.47
2022-09-11T13:09:46.894Z,25.98
2022-09-11T13:12:25.550Z,26.13
2022-09-11T13:14:52.700Z,25.18
2022-09-11T13:17:30.343Z,24.52
2022-09-11T13:20:19.654Z,24.48
2022-09-11T13:22:48.823Z,24.27
2022-09-11T13:25:18.589Z,24.91
2022-09-11T13:27:49.941Z,24.81
2022-09-11T13:30:21.545Z,24.70
2022-09-11T13:33:14.642Z,24.92
2022-09-11T13:35:45.520Z,24.67
2022-09-11T13:38:23.746Z,24.97
2022-09-11T13:41:14.552Z,25.02
2022-09-11T13:43:48.636Z,25.18
2022-09-11T13:46:15.116Z,24.84
2022-09-11T13:48:46.180Z,25.02
2022-09-11T13:51:15.240Z,25.12
2022-09-11T13:53:43.589Z,24.45
2022-09-11T13:56:21.034Z,24.44
2022-09-11T13:58:52.913Z,24.44
2022-09-11T14:01:20.043Z,24.84
2022-09-11T14:03:48.829Z,23.62
2022-09-11T14:06:20.536Z,22.89
2022-09-11T14:08:56.777Z,22.10
2022-09-11T14:11:28.193Z,21.81
2022-09-11T14:14:08.628Z,21.66
2022-09-11T14:16:38.062Z,21.52
2022-09-11T14:19:21.359Z,21.74
2022-09-11T14:21:50.268Z,21.49
2022-09-11T14:24:33.178Z,21.82
2022-09-11T14:27:04.442Z,22.16
2022-09-11T14:29:33.081Z,22.79
2022-09-11T14:32:32.446Z,22.97
2022-09-11T14:35:00.448Z,23.03
2022-09-11T14:37:29.796Z,22.93
2022-09-11T14:39:59.310Z,23.01
2022-09-11T14:42:29.380Z,22.97
2022-09-11T14:44:56.110Z,22.70
2022-09-11T14:47:31.470Z,22.77
2022-09-11T14:49:57.937Z,22.91
2022-09-11T14:52:27.419Z,22.76
2022-09-11T14:54:54.169Z,22.55
2022-09-11T14:57:23.366Z,22.69
2022-09-11T14:59:50.384Z,22.50
2022-09-11T15:02:21.868Z,22.70
2022-09-11T15:04:49.546Z,22.60
2022-09-11T15:07:16.983Z,22.66
2022-09-11T15:09:43.764Z,22.73
2022-09-11T15:12:11.790Z,22.54
2022-09-11T15:14:55.694Z,22.62
2022-09-11T15:17:25.007Z,22.37
2022-09-11T15:19:52.529Z,22.36
2022-09-11T15:22:18.999Z,22.32
2022-09-11T15:24:45.367Z,22.27
2022-09-11T15:27:11.757Z,22.19
2022-09-11T15:29:39.833Z,22.11
2022-09-11T15:32:07.502Z,21.94
2022-09-11T15:34:33.962Z,21.95
2022-09-11T15:37:00.370Z,21.86
2022-09-11T15:39:27.887Z,21.87
2022-09-11T15:41:55.594Z,21.80
2022-09-11T15:44:25.231Z,21.73
2022-09-11T15:46:53.312Z,21.62
2022-09-11T15:49:21.918Z,21.61
2022-09-11T15:51:53.922Z,21.57
2022-09-11T15:54:21.139Z,21.46
2022-09-11T15:56:47.562Z,21.32
2022-09-11T15:59:15.364Z,21.29
2022-09-11T16:01:42.803Z,21.26
2022-09-11T16:04:11.614Z,21.17
2022-09-11T16:06:40.727Z,21.20
2022-09-11T16:09:11.103Z,21.12
2022-09-11T16:11:39.764Z,21.17
2022-09-11T16:14:07.017Z,21.13
2022-09-11T16:16:33.870Z,21.06
2022-09-11T16:19:01.642Z,20.99
2022-09-11T16:21:28.867Z,20.95
2022-09-11T16:24:00.728Z,20.80
2022-09-11T16:26:28.976Z,20.75
2022-09-11T16:28:55.562Z,20.75
2022-09-11T16:31:21.986Z,20.55
2022-09-11T16:33:48.668Z,20.36
2022-09-11T16:36:20.527Z,20.08
2022-09-11T16:38:50.082Z,20.12
2022-09-11T16:41:20.038Z,20.04
2022-09-11T16:43:49.303Z,19.99
2022-09-11T16:46:17.969Z,19.91
2022-09-11T16:48:45.136Z,19.94
2022-09-11T16:51:13.224Z,19.86
2022-09-11T16:53:41.055Z,19.79
2022-09-11T16:56:10.435Z,19.77
2022-09-11T16:58:37.320Z,19.52
2022-09-11T17:01:15.671Z,19.32
2022-09-11T17:03:43.872Z,19.11
2022-09-11T17:06:11.491Z,19.01
2022-09-11T17:08:39.323Z,18.78
2022-09-11T17:11:10.289Z,18.70
2022-09-11T17:13:37.083Z,18.56
2022-09-11T17:16:31.995Z,18.45
2022-09-11T17:18:59.821Z,18.35
2022-09-11T17:21:26.517Z,18.28
2022-09-11T17:23:55.424Z,18.33
2022-09-11T17:26:22.797Z,18.31
2022-09-11T17:28:51.226Z,18.21
2022-09-11T17:31:19.374Z,18.09
2022-09-11T17:33:47.116Z,17.92
2022-09-11T17:36:17.007Z,17.85
2022-09-11T17:38:45.434Z,17.77
2022-09-11T17:41:12.661Z,17.74
2022-09-11T17:43:39.802Z,17.65
2022-09-11T17:46:19.816Z,17.48
2022-09-11T17:48:46.895Z,17.25
2022-09-11T17:51:20.083Z,17.11
2022-09-11T17:53:51.231Z,17.28
2022-09-11T17:56:20.750Z,17.13
2022-09-11T17:58:55.726Z,17.18
2022-09-11T18:01:23.115Z,17.06
2022-09-11T18:03:51.344Z,16.86
2022-09-11T18:06:26.010Z,16.91
2022-09-11T18:08:54.439Z,16.89
2022-09-11T18:11:20.831Z,16.79
2022-09-11T18:13:47.285Z,16.68
2022-09-11T18:16:13.840Z,16.65
2022-09-11T18:18:40.970Z,16.42
2022-09-11T18:21:09.699Z,16.44
2022-09-11T18:23:39.741Z,16.44
2022-09-11T18:26:07.107Z,16.35
2022-09-11T18:28:34.208Z,16.38
2022-09-11T18:31:02.126Z,16.09
2022-09-11T18:33:28.535Z,15.93
2022-09-11T18:35:54.974Z,16.16
2022-09-11T18:38:21.393Z,16.21
2022-09-11T18:40:54.456Z,15.90
2022-09-11T18:43:20.891Z,15.89
2022-09-11T18:45:47.433Z,16.02
2022-09-11T18:48:13.811Z,15.96
2022-09-11T18:50:40.187Z,15.66
2022-09-11T18:53:07.627Z,15.68
2022-09-11T18:55:34.212Z,15.76
2022-09-11T18:58:01.292Z,15.77
2022-09-11T19:00:29.620Z,15.61
2022-09-11T19:03:00.225Z,15.66
2022-09-11T19:05:27.058Z,15.70
2022-09-11T19:07:55.135Z,15.69
2022-09-11T19:10:21.610Z,15.66
2022-09-11T19:12:48.366Z,15.55
2022-09-11T19:15:14.760Z,15.35
2022-09-11T19:17:42.064Z,15.47
2022-09-11T19:20:10.143Z,15.56
2022-09-11T19:22:36.510Z,15.59
2022-09-11T19:25:03.790Z,15.33
2022-09-11T19:27:31.616Z,15.25
2022-09-11T19:29:58.195Z,15.27
2022-09-11T19:32:24.625Z,15.21
2022-09-11T19:34:51.382Z,15.16
2022-09-11T19:37:20.072Z,14.97
2022-09-11T19:39:51.774Z,15.06
2022-09-11T19:42:18.817Z,15.07
2022-09-11T19:44:45.486Z,14.97
2022-09-11T19:47:12.003Z,15.00
2022-09-11T19:49:38.381Z,14.94
2022-09-11T19:52:04.830Z,14.98
2022-09-11T19:54:31.343Z,14.81
2022-09-11T19:56:57.707Z,14.86
2022-09-11T19:59:24.100Z,14.80
2022-09-11T20:01:50.604Z,14.78
2022-09-11T20:04:19.064Z,14.62
2022-09-11T20:09:30.357Z,14.71
2022-09-11T20:11:57.208Z,14.79
2022-09-11T20:14:23.700Z,14.82
2022-09-11T20:16:50.117Z,14.80
2022-09-11T20:19:17.322Z,14.65
2022-09-11T20:21:43.766Z,14.55
2022-09-11T20:24:10.457Z,14.63
2022-09-11T20:26:37.168Z,14.50
2022-09-11T20:29:08.921Z,14.49
2022-09-11T20:31:46.285Z,14.34
2022-09-11T20:34:14.024Z,14.29
2022-09-11T20:36:40.414Z,14.47
2022-09-11T20:39:06.934Z,14.40
2022-09-11T20:41:33.399Z,14.23
2022-09-11T20:44:03.312Z,14.18
2022-09-11T20:46:29.725Z,14.34
2022-09-11T20:48:56.186Z,14.41
2022-09-11T20:51:22.958Z,14.30
2022-09-11T20:53:49.793Z,14.09
2022-09-11T20:56:20.276Z,14.06
2022-09-11T20:58:46.699Z,14.16
2022-09-11T21:01:17.410Z,14.13
2022-09-11T21:03:49.183Z,14.14
2022-09-11T21:06:16.125Z,14.07
2022-09-11T21:08:44.209Z,14.10
2022-09-11T21:11:11.890Z,14.11
2022-09-11T21:13:39.549Z,14.08
2022-09-11T21:16:08.724Z,14.15
2022-09-11T21:18:35.133Z,14.13
2022-09-11T21:21:01.873Z,14.05
2022-09-11T21:23:28.393Z,14.00
2022-09-11T21:25:54.946Z,14.00
2022-09-11T21:28:21.829Z,13.85
2022-09-11T21:30:48.233Z,13.83
2022-09-11T21:33:15.001Z,13.77
2022-09-11T21:35:41.370Z,13.83
2022-09-11T21:38:07.756Z,13.91
2022-09-11T21:40:34.150Z,13.87
2022-09-11T21:43:00.523Z,13.91
2022-09-11T21:45:26.961Z,13.95
2022-09-11T21:47:53.325Z,13.84
2022-09-11T21:50:19.698Z,13.85
2022-09-11T21:52:46.094Z,13.84
2022-09-11T21:55:13.361Z,13.84
2022-09-11T21:57:39.738Z,13.72
2022-09-11T22:00:12.509Z,13.78
2022-09-11T22:02:38.961Z,13.67
2022-09-11T22:05:06.066Z,13.73
2022-09-11T22:07:32.867Z,13.75
2022-09-11T22:09:59.432Z,13.77
2022-09-11T22:12:26.290Z,13.78
2022-09-11T22:14:54.757Z,13.77
2022-09-11T22:17:21.948Z,13.67
2022-09-11T22:19:48.320Z,13.55
2022-09-11T22:22:14.982Z,13.56
2022-09-11T22:24:41.430Z,13.59
2022-09-11T22:27:09.272Z,13.72
2022-09-11T22:29:36.073Z,13.62
2022-09-11T22:32:03.974Z,13.45
2022-09-11T22:34:33.041Z,13.55
2022-09-11T22:36:59.822Z,13.59
2022-09-11T22:39:26.268Z,13.57
2022-09-11T22:41:52.649Z,13.42
2022-09-11T22:44:19.791Z,13.47
2022-09-11T22:46:48.811Z,13.47
2022-09-11T22:49:15.637Z,13.49
2022-09-11T22:51:42.051Z,13.42
2022-09-11T22:54:08.576Z,13.44
2022-09-11T22:56:35.008Z,13.49
2022-09-11T22:59:01.403Z,13.48
2022-09-11T23:01:28.074Z,13.39
2022-09-11T23:03:54.689Z,13.30
2022-09-11T23:06:39.941Z,13.16
2022-09-11T23:09:07.659Z,13.31
2022-09-11T23:11:34.089Z,13.32
2022-09-11T23:14:00.543Z,13.27
2022-09-11T23:16:30.493Z,13.26
2022-09-11T23:18:59.781Z,13.17
2022-09-11T23:21:27.647Z,13.13
2022-09-11T23:23:55.559Z,13.25
2022-09-11T23:26:22.877Z,13.22
2022-09-11T23:28:49.361Z,13.27
2022-09-11T23:31:18.655Z,13.27
2022-09-11T23:33:45.303Z,13.22
2022-09-11T23:36:13.582Z,13.04
2022-09-11T23:38:40.522Z,13.09
2022-09-11T23:41:07.480Z,13.09
2022-09-11T23:43:33.913Z,13.15
2022-09-11T23:46:00.353Z,13.15
2022-09-11T23:48:27.114Z,13.20
2022-09-11T23:50:53.552Z,13.11
2022-09-11T23:53:20.149Z,13.14
2022-09-11T23:55:48.636Z,13.09
2022-09-11T23:58:15.950Z,13.04
